sensor_id;sensor_type;location;lat;lon;timestamp;temperature;humidity
8633;DHT22;4354;49.832;10.746;2023-05-16T00:00:01;10.00;99.90
8633;DHT22;4354;49.832;10.746;2023-05-16T00:02:32;10.00;99.90
8633;DHT22;4354;49.832;10.746;2023-05-16T00:04:59;10.00;99.90
8633;DHT22;4354;49.832;10.746;2023-05-16T00:07:26;9.90;99.90
8633;DHT22;4354;49.832;10.746;2023-05-16T00:09:52;10.00;99.90
8633;DHT22;4354;49.832;10.746;2023-05-16T00:12:19;10.00;99.90
8633;DHT22;4354;49.832;10.746;2023-05-16T00:14:48;9.90;99.90
8633;DHT22;4354;49.832;10.746;2023-05-16T00:17:15;9.80;99.90
8633;DHT22;4354;49.832;10.746;2023-05-16T00:19:45;9.70;99.90
8633;DHT22;4354;49.832;10.746;2023-05-16T00:22:15;9.60;99.90
8633;DHT22;4354;49.832;10.746;2023-05-16T00:24:42;9.60;99.90
8633;DHT22;4354;49.832;10.746;2023-05-16T00:27:09;9.50;99.90
8633;DHT22;4354;49.832;10.746;2023-05-16T00:29:36;9.60;99.90
8633;DHT22;4354;49.832;10.746;2023-05-16T00:32:02;9.60;99.90
8633;DHT22;4354;49.832;10.746;2023-05-16T00:34:30;9.60;99.90
8633;DHT22;4354;49.832;10.746;2023-05-16T00:36:56;9.70;99.90
8633;DHT22;4354;49.832;10.746;2023-05-16T00:39:23;9.80;99.90
8633;DHT22;4354;49.832;10.746;2023-05-16T00:41:50;9.80;99.90
8633;DHT22;4354;49.832;10.746;2023-05-16T00:44:17;9.80;99.90
8633;DHT22;4354;49.832;10.746;2023-05-16T00:46:44;9.80;99.90
8633;DHT22;4354;49.832;10.746;2023-05-16T00:49:12;10.60;99.90
8633;DHT22;4354;49.832;10.746;2023-05-16T00:51:38;9.90;99.90
8633;DHT22;4354;49.832;10.746;2023-05-16T00:54:06;9.90;99.90
8633;DHT22;4354;49.832;10.746;2023-05-16T00:56:34;9.90;99.90
8633;DHT22;4354;49.832;10.746;2023-05-16T00:59:01;9.90;99.90
8633;DHT22;4354;49.832;10.746;2023-05-16T01:01:29;9.90;99.90
8633;DHT22;4354;49.832;10.746;2023-05-16T01:03:56;9.90;99.90
8633;DHT22;4354;49.832;10.746;2023-05-16T01:06:23;9.90;99.90
8633;DHT22;4354;49.832;10.746;2023-05-16T01:08:50;9.90;99.90
8633;DHT22;4354;49.832;10.746;2023-05-16T01:11:34;9.80;99.90
8633;DHT22;4354;49.832;10.746;2023-05-16T01:25:20;9.80;99.90
8633;DHT22;4354;49.832;10.746;2023-05-16T01:27:48;9.80;99.90
8633;DHT22;4354;49.832;10.746;2023-05-16T01:30:17;9.70;99.90
8633;DHT22;4354;49.832;10.746;2023-05-16T01:32:44;9.70;99.90
8633;DHT22;4354;49.832;10.746;2023-05-16T01:35:14;9.60;99.90
8633;DHT22;4354;49.832;10.746;2023-05-16T01:37:57;9.60;99.90
8633;DHT22;4354;49.832;10.746;2023-05-16T01:40:54;9.60;99.90
8633;DHT22;4354;49.832;10.746;2023-05-16T01:43:25;9.50;99.90
8633;DHT22;4354;49.832;10.746;2023-05-16T01:46:08;9.30;99.90
8633;DHT22;4354;49.832;10.746;2023-05-16T01:48:45;9.30;99.90
8633;DHT22;4354;49.832;10.746;2023-05-16T01:51:13;9.20;99.90
8633;DHT22;4354;49.832;10.746;2023-05-16T01:53:40;9.10;99.90
8633;DHT22;4354;49.832;10.746;2023-05-16T01:56:10;9.00;99.90
8633;DHT22;4354;49.832;10.746;2023-05-16T01:58:40;8.90;99.90
8633;DHT22;4354;49.832;10.746;2023-05-16T02:01:07;8.90;99.90
8633;DHT22;4354;49.832;10.746;2023-05-16T02:03:34;8.80;99.90
8633;DHT22;4354;49.832;10.746;2023-05-16T02:06:01;8.70;99.90
8633;DHT22;4354;49.832;10.746;2023-05-16T02:08:28;8.70;99.90
8633;DHT22;4354;49.832;10.746;2023-05-16T02:10:54;8.60;99.90
8633;DHT22;4354;49.832;10.746;2023-05-16T02:13:21;8.60;99.90
8633;DHT22;4354;49.832;10.746;2023-05-16T02:15:48;8.70;99.90
8633;DHT22;4354;49.832;10.746;2023-05-16T02:18:15;8.70;99.90
8633;DHT22;4354;49.832;10.746;2023-05-16T02:20:42;8.60;99.90
8633;DHT22;4354;49.832;10.746;2023-05-16T02:23:09;8.60;99.90
8633;DHT22;4354;49.832;10.746;2023-05-16T02:25:36;8.70;99.90
8633;DHT22;4354;49.832;10.746;2023-05-16T02:28:02;8.80;99.90
8633;DHT22;4354;49.832;10.746;2023-05-16T02:30:29;8.90;99.90
8633;DHT22;4354;49.832;10.746;2023-05-16T02:32:56;9.00;99.90
8633;DHT22;4354;49.832;10.746;2023-05-16T02:35:23;9.00;99.90
8633;DHT22;4354;49.832;10.746;2023-05-16T02:37:50;9.10;99.90
8633;DHT22;4354;49.832;10.746;2023-05-16T02:40:18;9.10;99.90
8633;DHT22;4354;49.832;10.746;2023-05-16T02:42:45;9.20;99.90
8633;DHT22;4354;49.832;10.746;2023-05-16T02:45:12;9.30;99.90
8633;DHT22;4354;49.832;10.746;2023-05-16T02:47:39;9.30;99.90
8633;DHT22;4354;49.832;10.746;2023-05-16T02:50:06;9.30;99.90
8633;DHT22;4354;49.832;10.746;2023-05-16T02:52:33;9.40;99.90
8633;DHT22;4354;49.832;10.746;2023-05-16T02:54:59;9.40;99.90
8633;DHT22;4354;49.832;10.746;2023-05-16T02:57:46;9.50;99.90
8633;DHT22;4354;49.832;10.746;2023-05-16T03:00:13;9.50;99.90
8633;DHT22;4354;49.832;10.746;2023-05-16T03:02:42;9.50;99.90
8633;DHT22;4354;49.832;10.746;2023-05-16T03:05:10;9.60;99.90
8633;DHT22;4354;49.832;10.746;2023-05-16T03:07:37;9.60;99.90
8633;DHT22;4354;49.832;10.746;2023-05-16T03:10:05;9.60;99.90
8633;DHT22;4354;49.832;10.746;2023-05-16T03:12:32;9.60;99.90
8633;DHT22;4354;49.832;10.746;2023-05-16T03:14:59;9.70;99.90
8633;DHT22;4354;49.832;10.746;2023-05-16T03:17:28;9.70;99.90
8633;DHT22;4354;49.832;10.746;2023-05-16T03:19:55;9.70;99.90
8633;DHT22;4354;49.832;10.746;2023-05-16T03:22:21;9.70;99.90
8633;DHT22;4354;49.832;10.746;2023-05-16T03:24:48;9.70;99.90
8633;DHT22;4354;49.832;10.746;2023-05-16T03:27:15;9.70;99.90
8633;DHT22;4354;49.832;10.746;2023-05-16T03:29:42;9.80;99.90
8633;DHT22;4354;49.832;10.746;2023-05-16T03:32:10;9.80;99.90
8633;DHT22;4354;49.832;10.746;2023-05-16T03:34:37;9.80;99.90
8633;DHT22;4354;49.832;10.746;2023-05-16T03:37:03;9.80;99.90
8633;DHT22;4354;49.832;10.746;2023-05-16T03:39:31;9.80;99.90
8633;DHT22;4354;49.832;10.746;2023-05-16T03:41:58;9.80;99.90
8633;DHT22;4354;49.832;10.746;2023-05-16T03:44:24;9.80;99.90
8633;DHT22;4354;49.832;10.746;2023-05-16T03:46:51;9.90;99.90
8633;DHT22;4354;49.832;10.746;2023-05-16T03:49:22;9.90;99.90
8633;DHT22;4354;49.832;10.746;2023-05-16T03:51:49;9.90;99.90
8633;DHT22;4354;49.832;10.746;2023-05-16T03:54:15;9.90;99.90
8633;DHT22;4354;49.832;10.746;2023-05-16T03:56:42;9.90;99.90
8633;DHT22;4354;49.832;10.746;2023-05-16T03:59:09;9.90;99.90
8633;DHT22;4354;49.832;10.746;2023-05-16T04:01:36;9.90;99.90
8633;DHT22;4354;49.832;10.746;2023-05-16T04:04:03;9.90;99.90
8633;DHT22;4354;49.832;10.746;2023-05-16T04:06:30;10.00;99.90
8633;DHT22;4354;49.832;10.746;2023-05-16T04:08:57;10.00;99.90
8633;DHT22;4354;49.832;10.746;2023-05-16T04:11:24;10.00;99.90
8633;DHT22;4354;49.832;10.746;2023-05-16T04:13:52;10.00;99.90
8633;DHT22;4354;49.832;10.746;2023-05-16T04:16:19;10.00;99.90
8633;DHT22;4354;49.832;10.746;2023-05-16T04:18:46;10.00;99.90
8633;DHT22;4354;49.832;10.746;2023-05-16T04:21:13;10.00;99.90
8633;DHT22;4354;49.832;10.746;2023-05-16T04:23:40;10.00;99.90
8633;DHT22;4354;49.832;10.746;2023-05-16T04:26:07;10.00;99.90
8633;DHT22;4354;49.832;10.746;2023-05-16T04:28:34;10.00;99.90
8633;DHT22;4354;49.832;10.746;2023-05-16T04:31:01;10.00;99.90
8633;DHT22;4354;49.832;10.746;2023-05-16T04:33:28;10.00;99.90
8633;DHT22;4354;49.832;10.746;2023-05-16T04:35:55;10.00;99.90
8633;DHT22;4354;49.832;10.746;2023-05-16T04:38:23;10.00;99.90
8633;DHT22;4354;49.832;10.746;2023-05-16T04:40:51;10.10;99.90
8633;DHT22;4354;49.832;10.746;2023-05-16T04:43:18;10.10;99.90
8633;DHT22;4354;49.832;10.746;2023-05-16T04:45:45;10.20;99.90
8633;DHT22;4354;49.832;10.746;2023-05-16T04:48:12;10.20;99.90
8633;DHT22;4354;49.832;10.746;2023-05-16T04:50:39;10.20;99.90
8633;DHT22;4354;49.832;10.746;2023-05-16T04:53:06;10.30;99.90
8633;DHT22;4354;49.832;10.746;2023-05-16T04:55:33;10.40;99.90
8633;DHT22;4354;49.832;10.746;2023-05-16T04:58:00;10.40;99.90
8633;DHT22;4354;49.832;10.746;2023-05-16T05:00:27;10.40;99.90
8633;DHT22;4354;49.832;10.746;2023-05-16T05:02:55;10.50;99.90
8633;DHT22;4354;49.832;10.746;2023-05-16T05:05:21;10.50;99.90
8633;DHT22;4354;49.832;10.746;2023-05-16T05:07:48;10.70;99.90
8633;DHT22;4354;49.832;10.746;2023-05-16T05:10:15;10.70;99.90
8633;DHT22;4354;49.832;10.746;2023-05-16T05:12:42;10.80;99.90
8633;DHT22;4354;49.832;10.746;2023-05-16T05:15:09;10.80;99.90
8633;DHT22;4354;49.832;10.746;2023-05-16T05:17:36;10.90;99.90
8633;DHT22;4354;49.832;10.746;2023-05-16T05:20:04;11.00;99.90
8633;DHT22;4354;49.832;10.746;2023-05-16T05:22:34;11.10;99.90
8633;DHT22;4354;49.832;10.746;2023-05-16T05:25:00;11.20;99.90
8633;DHT22;4354;49.832;10.746;2023-05-16T05:27:27;11.30;99.90
8633;DHT22;4354;49.832;10.746;2023-05-16T05:29:54;11.30;92.50
8633;DHT22;4354;49.832;10.746;2023-05-16T05:32:21;11.40;83.70
8633;DHT22;4354;49.832;10.746;2023-05-16T05:34:48;11.60;80.60
8633;DHT22;4354;49.832;10.746;2023-05-16T05:37:16;11.70;67.60
8633;DHT22;4354;49.832;10.746;2023-05-16T05:39:42;11.80;66.80
8633;DHT22;4354;49.832;10.746;2023-05-16T05:42:09;11.90;50.90
8633;DHT22;4354;49.832;10.746;2023-05-16T05:44:37;12.00;35.40
8633;DHT22;4354;49.832;10.746;2023-05-16T05:47:07;12.10;38.90
8633;DHT22;4354;49.832;10.746;2023-05-16T05:49:34;12.20;22.20
8633;DHT22;4354;49.832;10.746;2023-05-16T05:52:01;12.20;29.70
8633;DHT22;4354;49.832;10.746;2023-05-16T05:54:28;12.20;25.40
8633;DHT22;4354;49.832;10.746;2023-05-16T05:56:59;12.30;46.30
8633;DHT22;4354;49.832;10.746;2023-05-16T05:59:26;12.50;34.60
8633;DHT22;4354;49.832;10.746;2023-05-16T06:01:53;12.60;4.00
8633;DHT22;4354;49.832;10.746;2023-05-16T06:04:20;12.70;1.00
8633;DHT22;4354;49.832;10.746;2023-05-16T06:06:47;12.80;1.00
8633;DHT22;4354;49.832;10.746;2023-05-16T06:09:14;13.00;1.00
8633;DHT22;4354;49.832;10.746;2023-05-16T06:11:41;13.20;1.00
8633;DHT22;4354;49.832;10.746;2023-05-16T06:14:11;13.40;1.00
8633;DHT22;4354;49.832;10.746;2023-05-16T06:16:37;13.50;1.00
8633;DHT22;4354;49.832;10.746;2023-05-16T06:19:06;13.70;1.00
8633;DHT22;4354;49.832;10.746;2023-05-16T06:21:33;13.90;1.00
8633;DHT22;4354;49.832;10.746;2023-05-16T06:23:59;14.10;1.00
8633;DHT22;4354;49.832;10.746;2023-05-16T06:26:26;14.20;1.00
8633;DHT22;4354;49.832;10.746;2023-05-16T06:28:53;14.30;1.00
8633;DHT22;4354;49.832;10.746;2023-05-16T06:31:20;14.40;84.30
8633;DHT22;4354;49.832;10.746;2023-05-16T06:33:47;14.40;1.00
8633;DHT22;4354;49.832;10.746;2023-05-16T06:36:13;14.50;1.00
8633;DHT22;4354;49.832;10.746;2023-05-16T06:38:40;14.60;20.90
8633;DHT22;4354;49.832;10.746;2023-05-16T06:41:07;14.50;99.90
8633;DHT22;4354;49.832;10.746;2023-05-16T06:43:33;14.60;9.40
8633;DHT22;4354;49.832;10.746;2023-05-16T06:46:01;14.70;1.00
8633;DHT22;4354;49.832;10.746;2023-05-16T06:48:28;14.80;1.00
8633;DHT22;4354;49.832;10.746;2023-05-16T06:50:55;14.90;99.90
8633;DHT22;4354;49.832;10.746;2023-05-16T06:53:23;15.00;1.00
8633;DHT22;4354;49.832;10.746;2023-05-16T06:55:50;15.00;1.00
8633;DHT22;4354;49.832;10.746;2023-05-16T06:58:18;15.00;99.90
8633;DHT22;4354;49.832;10.746;2023-05-16T07:00:45;15.30;99.90
8633;DHT22;4354;49.832;10.746;2023-05-16T07:03:12;15.50;99.90
8633;DHT22;4354;49.832;10.746;2023-05-16T07:05:39;15.80;1.00
8633;DHT22;4354;49.832;10.746;2023-05-16T07:08:08;16.00;1.00
8633;DHT22;4354;49.832;10.746;2023-05-16T07:10:35;16.70;1.00
8633;DHT22;4354;49.832;10.746;2023-05-16T07:13:05;17.20;99.90
8633;DHT22;4354;49.832;10.746;2023-05-16T07:15:32;17.90;1.00
8633;DHT22;4354;49.832;10.746;2023-05-16T07:17:59;18.20;1.00
8633;DHT22;4354;49.832;10.746;2023-05-16T07:20:26;18.60;1.00
8633;DHT22;4354;49.832;10.746;2023-05-16T07:22:53;19.00;1.00
8633;DHT22;4354;49.832;10.746;2023-05-16T07:25:23;19.40;1.00
8633;DHT22;4354;49.832;10.746;2023-05-16T07:27:51;19.50;99.90
8633;DHT22;4354;49.832;10.746;2023-05-16T07:30:17;19.80;99.90
8633;DHT22;4354;49.832;10.746;2023-05-16T07:32:44;19.90;99.90
8633;DHT22;4354;49.832;10.746;2023-05-16T07:35:11;20.10;99.90
8633;DHT22;4354;49.832;10.746;2023-05-16T07:37:38;20.10;99.90
8633;DHT22;4354;49.832;10.746;2023-05-16T07:40:09;19.80;99.90
8633;DHT22;4354;49.832;10.746;2023-05-16T07:42:36;19.70;99.90
8633;DHT22;4354;49.832;10.746;2023-05-16T07:45:03;19.10;99.90
8633;DHT22;4354;49.832;10.746;2023-05-16T07:47:30;18.70;99.90
8633;DHT22;4354;49.832;10.746;2023-05-16T07:49:57;18.20;99.90
8633;DHT22;4354;49.832;10.746;2023-05-16T07:52:24;17.70;99.90
8633;DHT22;4354;49.832;10.746;2023-05-16T07:54:51;17.30;99.90
8633;DHT22;4354;49.832;10.746;2023-05-16T07:57:17;17.20;99.90
8633;DHT22;4354;49.832;10.746;2023-05-16T07:59:44;17.10;99.90
8633;DHT22;4354;49.832;10.746;2023-05-16T08:02:12;17.30;99.90
8633;DHT22;4354;49.832;10.746;2023-05-16T08:04:39;17.40;99.90
8633;DHT22;4354;49.832;10.746;2023-05-16T08:07:06;17.40;99.90
8633;DHT22;4354;49.832;10.746;2023-05-16T08:09:33;17.40;99.90
8633;DHT22;4354;49.832;10.746;2023-05-16T08:12:00;17.70;99.90
8633;DHT22;4354;49.832;10.746;2023-05-16T08:14:30;18.20;99.90
8633;DHT22;4354;49.832;10.746;2023-05-16T08:16:58;19.10;99.90
8633;DHT22;4354;49.832;10.746;2023-05-16T08:19:26;19.90;99.90
8633;DHT22;4354;49.832;10.746;2023-05-16T08:21:53;21.10;99.90
8633;DHT22;4354;49.832;10.746;2023-05-16T08:24:20;20.90;99.90
8633;DHT22;4354;49.832;10.746;2023-05-16T08:26:47;22.00;99.90
8633;DHT22;4354;49.832;10.746;2023-05-16T08:29:14;22.40;99.90
8633;DHT22;4354;49.832;10.746;2023-05-16T08:31:41;22.40;99.90
8633;DHT22;4354;49.832;10.746;2023-05-16T08:34:08;23.00;99.90
8633;DHT22;4354;49.832;10.746;2023-05-16T08:36:36;24.80;99.90
8633;DHT22;4354;49.832;10.746;2023-05-16T08:39:03;25.50;99.90
8633;DHT22;4354;49.832;10.746;2023-05-16T08:41:30;24.70;94.70
8633;DHT22;4354;49.832;10.746;2023-05-16T08:43:57;23.50;93.20
8633;DHT22;4354;49.832;10.746;2023-05-16T08:46:24;22.60;93.80
8633;DHT22;4354;49.832;10.746;2023-05-16T08:48:53;21.70;97.20
8633;DHT22;4354;49.832;10.746;2023-05-16T08:51:23;21.20;99.90
8633;DHT22;4354;49.832;10.746;2023-05-16T08:53:59;20.90;99.90
8633;DHT22;4354;49.832;10.746;2023-05-16T08:56:28;20.80;99.90
8633;DHT22;4354;49.832;10.746;2023-05-16T08:58:56;21.00;99.90
8633;DHT22;4354;49.832;10.746;2023-05-16T09:01:24;20.90;99.90
8633;DHT22;4354;49.832;10.746;2023-05-16T09:03:51;21.40;98.10
8633;DHT22;4354;49.832;10.746;2023-05-16T09:06:18;21.50;95.30
8633;DHT22;4354;49.832;10.746;2023-05-16T09:08:45;21.10;95.20
8633;DHT22;4354;49.832;10.746;2023-05-16T09:11:12;21.10;96.70
8633;DHT22;4354;49.832;10.746;2023-05-16T09:13:39;21.40;95.00
8633;DHT22;4354;49.832;10.746;2023-05-16T09:16:09;21.20;95.20
8633;DHT22;4354;49.832;10.746;2023-05-16T09:18:38;21.30;96.30
8633;DHT22;4354;49.832;10.746;2023-05-16T09:21:05;21.60;95.70
8633;DHT22;4354;49.832;10.746;2023-05-16T09:23:35;21.60;94.10
8633;DHT22;4354;49.832;10.746;2023-05-16T09:26:04;21.40;93.30
8633;DHT22;4354;49.832;10.746;2023-05-16T09:28:35;21.00;93.60
8633;DHT22;4354;49.832;10.746;2023-05-16T09:31:02;20.70;95.00
8633;DHT22;4354;49.832;10.746;2023-05-16T09:33:29;20.50;94.10
8633;DHT22;4354;49.832;10.746;2023-05-16T09:35:58;21.20;94.50
8633;DHT22;4354;49.832;10.746;2023-05-16T09:38:26;22.20;92.20
8633;DHT22;4354;49.832;10.746;2023-05-16T09:40:54;23.20;90.20
8633;DHT22;4354;49.832;10.746;2023-05-16T09:43:30;24.70;85.20
8633;DHT22;4354;49.832;10.746;2023-05-16T09:45:58;26.20;66.50
8633;DHT22;4354;49.832;10.746;2023-05-16T09:48:25;27.40;79.60
8633;DHT22;4354;49.832;10.746;2023-05-16T09:50:54;28.10;29.70
8633;DHT22;4354;49.832;10.746;2023-05-16T09:53:29;29.40;19.10
8633;DHT22;4354;49.832;10.746;2023-05-16T09:56:01;29.70;10.80
8633;DHT22;4354;49.832;10.746;2023-05-16T09:58:32;30.20;2.70
8633;DHT22;4354;49.832;10.746;2023-05-16T10:01:01;29.80;1.00
8633;DHT22;4354;49.832;10.746;2023-05-16T10:03:28;28.80;1.00
8633;DHT22;4354;49.832;10.746;2023-05-16T10:05:56;27.70;1.00
8633;DHT22;4354;49.832;10.746;2023-05-16T10:08:24;27.50;1.00
8633;DHT22;4354;49.832;10.746;2023-05-16T10:10:53;27.60;1.00
8633;DHT22;4354;49.832;10.746;2023-05-16T10:13:21;27.30;1.00
8633;DHT22;4354;49.832;10.746;2023-05-16T10:15:50;26.90;1.00
8633;DHT22;4354;49.832;10.746;2023-05-16T10:18:19;26.30;1.40
8633;DHT22;4354;49.832;10.746;2023-05-16T10:20:50;26.70;2.60
8633;DHT22;4354;49.832;10.746;2023-05-16T10:23:19;26.70;1.00
8633;DHT22;4354;49.832;10.746;2023-05-16T10:25:47;26.10;1.00
8633;DHT22;4354;49.832;10.746;2023-05-16T10:28:15;25.20;1.10
8633;DHT22;4354;49.832;10.746;2023-05-16T10:30:44;25.40;1.00
8633;DHT22;4354;49.832;10.746;2023-05-16T10:33:12;24.90;1.90
8633;DHT22;4354;49.832;10.746;2023-05-16T10:35:41;24.50;2.60
8633;DHT22;4354;49.832;10.746;2023-05-16T10:38:09;23.60;3.90
8633;DHT22;4354;49.832;10.746;2023-05-16T10:40:38;23.00;6.70
8633;DHT22;4354;49.832;10.746;2023-05-16T10:43:07;22.10;8.10
8633;DHT22;4354;49.832;10.746;2023-05-16T10:45:38;21.30;13.60
8633;DHT22;4354;49.832;10.746;2023-05-16T10:48:05;20.50;18.00
8633;DHT22;4354;49.832;10.746;2023-05-16T11:06:25;16.90;47.80
8633;DHT22;4354;49.832;10.746;2023-05-16T11:11:44;16.40;57.10
8633;DHT22;4354;49.832;10.746;2023-05-16T11:17:06;16.50;81.10
8633;DHT22;4354;49.832;10.746;2023-05-16T11:24:59;16.40;82.60
8633;DHT22;4354;49.832;10.746;2023-05-16T11:27:29;16.50;76.90
8633;DHT22;4354;49.832;10.746;2023-05-16T11:30:11;16.90;84.10
8633;DHT22;4354;49.832;10.746;2023-05-16T11:32:40;17.30;71.80
8633;DHT22;4354;49.832;10.746;2023-05-16T11:35:10;17.70;71.30
8633;DHT22;4354;49.832;10.746;2023-05-16T11:37:41;18.10;63.30
8633;DHT22;4354;49.832;10.746;2023-05-16T11:40:10;18.20;58.00
8633;DHT22;4354;49.832;10.746;2023-05-16T11:42:39;18.50;60.80
8633;DHT22;4354;49.832;10.746;2023-05-16T11:45:07;18.60;56.70
8633;DHT22;4354;49.832;10.746;2023-05-16T11:47:42;18.50;54.60
8633;DHT22;4354;49.832;10.746;2023-05-16T11:52:37;18.90;53.00
8633;DHT22;4354;49.832;10.746;2023-05-16T11:55:06;19.00;49.10
8633;DHT22;4354;49.832;10.746;2023-05-16T11:57:33;18.90;50.70
8633;DHT22;4354;49.832;10.746;2023-05-16T12:02:40;18.60;51.20
8633;DHT22;4354;49.832;10.746;2023-05-16T12:05:08;18.30;48.10
8633;DHT22;4354;49.832;10.746;2023-05-16T12:07:36;17.80;52.20
8633;DHT22;4354;49.832;10.746;2023-05-16T12:10:11;17.50;57.70
8633;DHT22;4354;49.832;10.746;2023-05-16T12:12:40;17.30;63.30
8633;DHT22;4354;49.832;10.746;2023-05-16T12:15:08;17.20;62.10
8633;DHT22;4354;49.832;10.746;2023-05-16T12:17:36;17.10;63.70
8633;DHT22;4354;49.832;10.746;2023-05-16T12:20:04;17.10;64.50
8633;DHT22;4354;49.832;10.746;2023-05-16T12:22:32;17.10;65.20
8633;DHT22;4354;49.832;10.746;2023-05-16T12:25:00;16.90;62.30
8633;DHT22;4354;49.832;10.746;2023-05-16T12:27:41;16.90;64.60
8633;DHT22;4354;49.832;10.746;2023-05-16T12:30:11;16.80;69.10
8633;DHT22;4354;49.832;10.746;2023-05-16T12:32:38;16.70;69.60
8633;DHT22;4354;49.832;10.746;2023-05-16T12:35:05;16.40;71.50
8633;DHT22;4354;49.832;10.746;2023-05-16T12:37:33;16.30;73.30
8633;DHT22;4354;49.832;10.746;2023-05-16T12:40:00;16.40;73.40
8633;DHT22;4354;49.832;10.746;2023-05-16T12:42:26;16.70;76.00
8633;DHT22;4354;49.832;10.746;2023-05-16T12:44:56;17.00;71.90
8633;DHT22;4354;49.832;10.746;2023-05-16T12:47:23;16.80;73.30
8633;DHT22;4354;49.832;10.746;2023-05-16T12:50:00;17.10;70.30
8633;DHT22;4354;49.832;10.746;2023-05-16T12:52:28;17.40;64.80
8633;DHT22;4354;49.832;10.746;2023-05-16T12:54:54;17.60;63.10
8633;DHT22;4354;49.832;10.746;2023-05-16T12:57:21;17.60;60.90
8633;DHT22;4354;49.832;10.746;2023-05-16T12:59:48;17.70;64.50
8633;DHT22;4354;49.832;10.746;2023-05-16T13:02:14;18.10;59.20
8633;DHT22;4354;49.832;10.746;2023-05-16T13:04:42;18.30;57.70
8633;DHT22;4354;49.832;10.746;2023-05-16T13:07:09;18.60;55.90
8633;DHT22;4354;49.832;10.746;2023-05-16T13:09:37;18.80;55.60
8633;DHT22;4354;49.832;10.746;2023-05-16T13:12:04;19.20;49.10
8633;DHT22;4354;49.832;10.746;2023-05-16T13:14:31;19.70;47.30
8633;DHT22;4354;49.832;10.746;2023-05-16T13:16:58;19.90;49.30
8633;DHT22;4354;49.832;10.746;2023-05-16T13:19:24;20.00;47.50
8633;DHT22;4354;49.832;10.746;2023-05-16T13:21:51;20.00;44.90
8633;DHT22;4354;49.832;10.746;2023-05-16T13:24:18;19.90;45.40
8633;DHT22;4354;49.832;10.746;2023-05-16T13:26:45;19.80;45.80
8633;DHT22;4354;49.832;10.746;2023-05-16T13:29:12;19.50;50.20
8633;DHT22;4354;49.832;10.746;2023-05-16T13:31:40;19.20;49.00
8633;DHT22;4354;49.832;10.746;2023-05-16T13:34:07;18.90;46.80
8633;DHT22;4354;49.832;10.746;2023-05-16T13:36:33;19.00;48.40
8633;DHT22;4354;49.832;10.746;2023-05-16T13:39:15;19.50;49.30
8633;DHT22;4354;49.832;10.746;2023-05-16T13:41:42;19.90;49.80
8633;DHT22;4354;49.832;10.746;2023-05-16T13:44:08;19.80;48.60
8633;DHT22;4354;49.832;10.746;2023-05-16T13:46:35;19.90;49.90
8633;DHT22;4354;49.832;10.746;2023-05-16T13:49:02;19.90;45.20
8633;DHT22;4354;49.832;10.746;2023-05-16T13:51:29;19.80;43.90
8633;DHT22;4354;49.832;10.746;2023-05-16T13:53:57;19.70;42.70
8633;DHT22;4354;49.832;10.746;2023-05-16T13:56:24;19.30;44.60
8633;DHT22;4354;49.832;10.746;2023-05-16T13:58:51;19.00;47.40
8633;DHT22;4354;49.832;10.746;2023-05-16T14:01:26;18.70;47.00
8633;DHT22;4354;49.832;10.746;2023-05-16T14:03:53;18.20;47.80
8633;DHT22;4354;49.832;10.746;2023-05-16T14:06:20;17.70;49.80
8633;DHT22;4354;49.832;10.746;2023-05-16T14:08:47;17.50;51.40
8633;DHT22;4354;49.832;10.746;2023-05-16T14:11:14;17.30;57.40
8633;DHT22;4354;49.832;10.746;2023-05-16T14:13:40;17.30;59.80
8633;DHT22;4354;49.832;10.746;2023-05-16T14:16:07;17.30;54.00
8633;DHT22;4354;49.832;10.746;2023-05-16T14:18:34;17.10;59.40
8633;DHT22;4354;49.832;10.746;2023-05-16T14:21:01;17.30;57.50
8633;DHT22;4354;49.832;10.746;2023-05-16T14:23:28;17.30;58.10
8633;DHT22;4354;49.832;10.746;2023-05-16T14:25:55;17.10;59.60
8633;DHT22;4354;49.832;10.746;2023-05-16T14:28:22;16.70;59.20
8633;DHT22;4354;49.832;10.746;2023-05-16T14:30:48;16.00;63.30
8633;DHT22;4354;49.832;10.746;2023-05-16T14:33:15;15.60;67.50
8633;DHT22;4354;49.832;10.746;2023-05-16T14:35:42;15.30;70.40
8633;DHT22;4354;49.832;10.746;2023-05-16T14:38:09;15.00;80.50
8633;DHT22;4354;49.832;10.746;2023-05-16T14:40:36;14.70;91.60
8633;DHT22;4354;49.832;10.746;2023-05-16T14:43:02;14.60;85.10
8633;DHT22;4354;49.832;10.746;2023-05-16T14:45:29;14.50;99.20
8633;DHT22;4354;49.832;10.746;2023-05-16T14:47:56;14.60;96.40
8633;DHT22;4354;49.832;10.746;2023-05-16T14:50:23;14.80;99.90
8633;DHT22;4354;49.832;10.746;2023-05-16T14:52:51;15.10;99.90
8633;DHT22;4354;49.832;10.746;2023-05-16T14:55:19;15.60;86.90
8633;DHT22;4354;49.832;10.746;2023-05-16T15:00:24;16.20;63.00
8633;DHT22;4354;49.832;10.746;2023-05-16T15:02:51;16.40;61.70
8633;DHT22;4354;49.832;10.746;2023-05-16T15:05:18;16.40;58.70
8633;DHT22;4354;49.832;10.746;2023-05-16T15:07:46;16.40;59.80
8633;DHT22;4354;49.832;10.746;2023-05-16T15:10:12;16.50;57.80
8633;DHT22;4354;49.832;10.746;2023-05-16T15:12:39;16.50;60.90
8633;DHT22;4354;49.832;10.746;2023-05-16T15:15:10;16.40;57.70
8633;DHT22;4354;49.832;10.746;2023-05-16T15:17:39;16.80;56.60
8633;DHT22;4354;49.832;10.746;2023-05-16T15:20:11;17.00;56.50
8633;DHT22;4354;49.832;10.746;2023-05-16T15:22:38;16.90;52.50
8633;DHT22;4354;49.832;10.746;2023-05-16T15:25:07;16.80;53.70
8633;DHT22;4354;49.832;10.746;2023-05-16T15:27:34;16.60;56.80
8633;DHT22;4354;49.832;10.746;2023-05-16T15:30:01;16.40;56.00
8633;DHT22;4354;49.832;10.746;2023-05-16T15:32:27;16.20;56.40
8633;DHT22;4354;49.832;10.746;2023-05-16T15:34:54;16.00;57.90
8633;DHT22;4354;49.832;10.746;2023-05-16T15:37:21;15.80;58.70
8633;DHT22;4354;49.832;10.746;2023-05-16T15:39:48;15.80;60.50
8633;DHT22;4354;49.832;10.746;2023-05-16T15:42:15;15.70;61.30
8633;DHT22;4354;49.832;10.746;2023-05-16T15:44:42;15.70;60.90
8633;DHT22;4354;49.832;10.746;2023-05-16T15:47:08;15.60;60.00
8633;DHT22;4354;49.832;10.746;2023-05-16T15:49:36;15.60;60.70
8633;DHT22;4354;49.832;10.746;2023-05-16T15:52:03;15.60;59.90
8633;DHT22;4354;49.832;10.746;2023-05-16T15:54:30;15.60;60.30
8633;DHT22;4354;49.832;10.746;2023-05-16T15:56:57;15.60;67.00
8633;DHT22;4354;49.832;10.746;2023-05-16T15:59:24;15.50;64.40
8633;DHT22;4354;49.832;10.746;2023-05-16T16:01:51;15.50;74.50
8633;DHT22;4354;49.832;10.746;2023-05-16T16:04:19;15.40;62.10
8633;DHT22;4354;49.832;10.746;2023-05-16T16:06:49;15.20;65.20
8633;DHT22;4354;49.832;10.746;2023-05-16T16:09:16;15.10;69.50
8633;DHT22;4354;49.832;10.746;2023-05-16T16:11:43;15.10;68.50
8633;DHT22;4354;49.832;10.746;2023-05-16T16:14:09;15.00;69.80
8633;DHT22;4354;49.832;10.746;2023-05-16T16:16:36;15.00;64.80
8633;DHT22;4354;49.832;10.746;2023-05-16T16:19:06;14.90;67.10
8633;DHT22;4354;49.832;10.746;2023-05-16T16:21:34;14.80;68.70
8633;DHT22;4354;49.832;10.746;2023-05-16T16:24:01;14.90;63.50
8633;DHT22;4354;49.832;10.746;2023-05-16T16:26:28;14.90;64.90
8633;DHT22;4354;49.832;10.746;2023-05-16T16:28:55;15.10;63.60
8633;DHT22;4354;49.832;10.746;2023-05-16T16:31:21;15.20;63.60
8633;DHT22;4354;49.832;10.746;2023-05-16T16:33:48;15.30;62.10
8633;DHT22;4354;49.832;10.746;2023-05-16T16:36:15;15.50;58.90
8633;DHT22;4354;49.832;10.746;2023-05-16T16:38:42;15.70;57.90
8633;DHT22;4354;49.832;10.746;2023-05-16T16:41:09;15.70;56.60